createdAt,value
2023-11-02T00:01:07.681Z,59.85
2023-11-02T00:03:38.162Z,60.95
2023-11-02T00:06:22.795Z,61.16
2023-11-02T00:09:27.041Z,61.63
2023-11-02T00:11:57.228Z,61.94
2023-11-02T00:14:28.046Z,61.84
2023-11-02T00:16:58.204Z,60.72
2023-11-02T00:19:33.417Z,60.42
2023-11-02T00:22:08.572Z,60.46
2023-11-02T00:24:37.953Z,60.82
2023-11-02T00:27:06.345Z,61.83
2023-11-02T00:29:34.582Z,61.60
2023-11-02T00:32:02.577Z,60.59
2023-11-02T00:34:32.219Z,61.01
2023-11-02T00:37:00.377Z,61.35
2023-11-02T00:39:28.803Z,61.75
2023-11-02T00:41:57.605Z,61.92
2023-11-02T00:44:25.804Z,62.38
2023-11-02T00:46:53.931Z,62.25
2023-11-02T00:49:24.949Z,61.95
2023-11-02T00:51:57.790Z,61.89
2023-11-02T00:54:59.813Z,61.08
2023-11-02T00:57:36.834Z,61.34
2023-11-02T01:00:05.689Z,61.92
2023-11-02T01:02:37.319Z,61.96
2023-11-02T01:05:07.681Z,62.01
2023-11-02T01:07:37.195Z,62.00
2023-11-02T01:10:07.490Z,61.99
2023-11-02T01:12:37.181Z,62.08
2023-11-02T01:15:08.171Z,62.81
2023-11-02T01:17:39.834Z,63.71
2023-11-02T01:20:10.133Z,63.33
2023-11-02T01:23:00.772Z,64.13
2023-11-02T01:25:30.464Z,64.05
2023-11-02T01:28:03.735Z,64.03
2023-11-02T01:31:19.080Z,64.08
2023-11-02T01:34:05.137Z,64.36
2023-11-02T01:36:38.173Z,65.22
2023-11-02T01:39:52.998Z,65.83
2023-11-02T01:42:32.017Z,65.59
2023-11-02T01:45:12.948Z,65.43
2023-11-02T01:52:02.484Z,67.97
2023-11-02T01:54:45.130Z,67.77
2023-11-02T01:57:49.413Z,66.91
2023-11-02T02:00:18.820Z,67.31
2023-11-02T02:02:53.530Z,67.84
2023-11-02T02:05:28.634Z,68.41
2023-11-02T02:08:04.640Z,67.86
2023-11-02T02:10:58.898Z,67.03
2023-11-02T02:13:34.451Z,68.66
2023-11-02T02:16:09.255Z,69.43
2023-11-02T02:18:45.506Z,69.21
2023-11-02T02:21:21.703Z,68.88
2023-11-02T02:23:56.135Z,68.34
2023-11-02T02:27:08.372Z,68.53
2023-11-02T02:30:18.793Z,68.50
2023-11-02T02:33:04.339Z,68.66
2023-11-02T02:35:38.625Z,69.25
2023-11-02T02:38:08.944Z,70.46
2023-11-02T02:40:41.596Z,70.84
2023-11-02T02:43:12.006Z,70.70
2023-11-02T02:45:42.643Z,70.86
2023-11-02T02:48:14.376Z,71.20
2023-11-02T02:50:44.884Z,71.62
2023-11-02T02:53:16.346Z,71.93
2023-11-02T02:55:48.895Z,71.54
2023-11-02T02:58:21.772Z,71.48
2023-11-02T03:00:50.411Z,71.13
2023-11-02T03:03:23.074Z,70.80
2023-11-02T03:05:55.390Z,71.04
2023-11-02T03:08:24.944Z,71.47
2023-11-02T03:10:54.488Z,72.17
2023-11-02T03:13:24.115Z,71.63
2023-11-02T03:15:56.437Z,71.74
2023-11-02T03:18:33.186Z,71.84
2023-11-02T03:21:02.741Z,71.73
2023-11-02T03:23:37.350Z,72.06
2023-11-02T03:26:18.395Z,72.61
2023-11-02T03:28:58.096Z,73.67
2023-11-02T03:31:39.015Z,74.65
2023-11-02T03:34:17.814Z,73.90
2023-11-02T03:37:13.186Z,73.40
2023-11-02T03:40:11.507Z,73.26
2023-11-02T03:42:51.475Z,73.54
2023-11-02T03:45:33.068Z,74.35
2023-11-02T03:48:16.438Z,73.22
2023-11-02T03:50:53.795Z,74.05
2023-11-02T03:53:31.020Z,74.17
2023-11-02T03:56:14.093Z,73.80
2023-11-02T03:58:56.960Z,73.49
2023-11-02T04:01:33.160Z,74.63
2023-11-02T04:04:07.978Z,74.30
2023-11-02T04:06:46.037Z,73.83
2023-11-02T04:09:20.926Z,73.84
2023-11-02T04:12:00.981Z,73.46
2023-11-02T04:14:29.292Z,73.07
2023-11-02T04:16:57.331Z,74.02
2023-11-02T04:19:25.707Z,74.21
2023-11-02T04:21:53.675Z,74.27
2023-11-02T04:24:23.096Z,73.89
2023-11-02T04:26:51.099Z,73.41
2023-11-02T04:29:19.098Z,73.63
2023-11-02T04:31:47.040Z,73.54
2023-11-02T04:34:15.709Z,73.48
2023-11-02T04:36:43.629Z,73.71
2023-11-02T04:39:11.544Z,73.97
2023-11-02T04:41:40.777Z,74.25
2023-11-02T04:44:08.684Z,74.17
2023-11-02T04:46:37.246Z,74.15
2023-11-02T04:49:05.365Z,74.33
2023-11-02T04:51:33.355Z,73.50
2023-11-02T04:54:01.288Z,72.84
2023-11-02T04:56:29.273Z,72.12
2023-11-02T04:58:58.574Z,73.07
2023-11-02T05:01:26.436Z,73.86
2023-11-02T05:03:57.204Z,73.88
2023-11-02T05:06:25.298Z,74.06
2023-11-02T05:08:53.211Z,73.17
2023-11-02T05:11:21.172Z,71.91
2023-11-02T05:13:49.151Z,71.91
2023-11-02T05:16:18.421Z,71.58
2023-11-02T05:18:46.469Z,70.99
2023-11-02T05:21:14.506Z,71.33
2023-11-02T05:23:42.427Z,71.23
2023-11-02T05:26:10.333Z,70.43
2023-11-02T05:28:38.240Z,70.25
2023-11-02T05:31:06.747Z,69.70
2023-11-02T05:33:36.150Z,69.97
2023-11-02T05:36:04.237Z,70.16
2023-11-02T05:38:32.177Z,70.00
2023-11-02T05:41:00.070Z,70.03
2023-11-02T05:43:28.037Z,70.16
2023-11-02T05:45:55.936Z,70.88
2023-11-02T05:48:24.050Z,71.22
2023-11-02T05:50:53.296Z,71.19
2023-11-02T05:53:21.271Z,71.24
2023-11-02T05:55:49.206Z,71.77
2023-11-02T05:58:17.096Z,71.57
2023-11-02T06:00:45.274Z,71.37
2023-11-02T06:03:13.360Z,72.39
2023-11-02T06:05:41.340Z,73.16
2023-11-02T06:08:10.662Z,72.39
2023-11-02T06:10:38.564Z,72.35
2023-11-02T06:13:06.499Z,72.49
2023-11-02T06:15:34.511Z,72.73
2023-11-02T06:18:03.019Z,72.37
2023-11-02T06:20:31.028Z,71.41
2023-11-02T06:22:58.949Z,70.71
2023-11-02T06:25:28.276Z,70.63
2023-11-02T06:27:56.163Z,71.41
2023-11-02T06:30:24.195Z,71.71
2023-11-02T06:32:52.550Z,72.16
2023-11-02T06:35:20.506Z,71.58
2023-11-02T06:37:58.827Z,71.77
2023-11-02T06:40:29.606Z,72.11
2023-11-02T06:42:59.185Z,71.85
2023-11-02T06:45:27.754Z,71.74
2023-11-02T06:47:57.790Z,71.74
2023-11-02T06:50:26.314Z,71.66
2023-11-02T06:52:54.227Z,71.30
2023-11-02T06:55:22.159Z,71.41
2023-11-02T06:57:51.693Z,71.44
2023-11-02T07:00:20.389Z,71.21
2023-11-02T07:02:48.434Z,70.90
2023-11-02T07:05:16.748Z,71.14
2023-11-02T07:07:46.107Z,71.22
2023-11-02T07:10:15.634Z,70.99
2023-11-02T07:12:43.629Z,71.51
2023-11-02T07:15:14.938Z,71.44
2023-11-02T07:17:43.044Z,70.71
2023-11-02T07:20:11.934Z,71.24
2023-11-02T07:22:39.845Z,71.61
2023-11-02T07:25:08.927Z,72.07
2023-11-02T07:27:36.942Z,72.26
2023-11-02T07:30:05.419Z,71.93
2023-11-02T07:32:34.729Z,70.59
2023-11-02T07:35:02.786Z,70.06
2023-11-02T07:37:30.808Z,70.07
2023-11-02T07:39:58.762Z,69.46
2023-11-02T07:42:26.785Z,68.49
2023-11-02T07:44:54.726Z,68.59
2023-11-02T07:47:36.076Z,68.08
2023-11-02T07:50:04.983Z,68.17
2023-11-02T07:52:33.051Z,67.75
2023-11-02T07:55:01.303Z,67.37
2023-11-02T07:57:29.475Z,67.15
2023-11-02T07:59:57.421Z,67.15
2023-11-02T08:02:25.333Z,67.22
2023-11-02T08:04:54.794Z,67.23
2023-11-02T08:07:22.801Z,67.20
2023-11-02T08:09:50.669Z,67.31
2023-11-02T08:12:21.931Z,66.97
2023-11-02T08:14:50.931Z,67.85
2023-11-02T08:17:21.075Z,67.75
2023-11-02T08:19:49.110Z,68.13
2023-11-02T08:22:18.520Z,67.93
2023-11-02T08:24:46.540Z,67.87
2023-11-02T08:27:14.959Z,67.64
2023-11-02T08:29:42.864Z,67.45
2023-11-02T08:32:10.768Z,67.02
2023-11-02T08:34:42.950Z,67.14
2023-11-02T08:37:12.492Z,67.01
2023-11-02T08:39:42.525Z,67.99
2023-11-02T08:42:11.387Z,68.66
2023-11-02T08:44:44.457Z,67.44
2023-11-02T08:47:14.209Z,67.73
2023-11-02T08:49:43.342Z,67.59
2023-11-02T08:52:11.625Z,66.92
2023-11-02T08:54:39.899Z,66.54
2023-11-02T08:57:09.260Z,66.29
2023-11-02T08:59:37.262Z,66.10
2023-11-02T09:02:05.168Z,66.25
2023-11-02T09:04:33.147Z,66.50
2023-11-02T09:07:01.443Z,66.62
2023-11-02T09:09:29.541Z,66.39
2023-11-02T09:11:58.192Z,66.59
2023-11-02T09:14:27.496Z,67.67
2023-11-02T09:16:55.506Z,68.10
2023-11-02T09:19:23.463Z,68.00
2023-11-02T09:21:51.607Z,68.82
2023-11-02T09:24:19.940Z,68.67
2023-11-02T09:26:47.967Z,67.76
2023-11-02T09:29:16.164Z,67.53
2023-11-02T09:31:55.500Z,69.43
2023-11-02T09:34:31.324Z,68.85
2023-11-02T09:37:00.653Z,69.56
2023-11-02T09:39:30.556Z,69.67
2023-11-02T09:41:58.603Z,69.59
2023-11-02T09:44:28.136Z,69.84
2023-11-02T09:46:57.505Z,70.32
2023-11-02T09:49:25.663Z,70.27
2023-11-02T09:51:54.549Z,69.49
2023-11-02T09:54:33.755Z,69.21
2023-11-02T09:57:08.298Z,67.99
2023-11-02T09:59:40.393Z,67.92
2023-11-02T10:02:10.672Z,67.45
2023-11-02T10:04:39.180Z,67.61
2023-11-02T10:07:07.763Z,66.91
2023-11-02T10:09:37.067Z,67.82
2023-11-02T10:12:06.000Z,68.18
2023-11-02T10:14:35.618Z,67.06
2023-11-02T10:17:04.356Z,66.60
2023-11-02T10:19:35.090Z,66.75
2023-11-02T10:22:04.167Z,68.25
2023-11-02T10:24:33.635Z,68.50
2023-11-02T10:27:02.074Z,68.74
2023-11-02T10:29:30.332Z,69.50
2023-11-02T10:31:58.584Z,68.11
2023-11-02T10:34:28.527Z,67.55
2023-11-02T10:36:59.090Z,68.01
2023-11-02T10:39:27.522Z,67.25
2023-11-02T10:41:59.161Z,69.01
2023-11-02T10:44:30.119Z,68.43
2023-11-02T10:47:00.774Z,68.87
2023-11-02T10:49:30.941Z,68.86
2023-11-02T10:52:01.107Z,67.70
2023-11-02T10:54:39.089Z,68.32
2023-11-02T10:57:16.809Z,68.44
2023-11-02T10:59:46.090Z,68.56
2023-11-02T11:02:16.222Z,68.43
2023-11-02T11:04:45.955Z,68.63
2023-11-02T11:07:15.704Z,68.48
2023-11-02T11:09:43.911Z,69.11
2023-11-02T11:12:11.981Z,69.20
2023-11-02T11:14:41.290Z,68.74
2023-11-02T11:17:09.982Z,68.15
2023-11-02T11:19:38.249Z,68.09
2023-11-02T11:22:13.493Z,67.27
2023-11-02T11:24:45.684Z,66.83
2023-11-02T11:27:13.876Z,66.66
2023-11-02T11:29:43.195Z,66.73
2023-11-02T11:32:31.508Z,67.09
2023-11-02T11:35:14.709Z,66.74
2023-11-02T11:37:45.932Z,67.49
2023-11-02T11:40:35.467Z,68.12
2023-11-02T11:43:07.922Z,68.83
2023-11-02T11:45:37.835Z,69.42
2023-11-02T11:48:08.639Z,69.12
2023-11-02T11:50:38.772Z,69.43
2023-11-02T11:53:15.397Z,69.25
2023-11-02T11:55:46.109Z,68.27
2023-11-02T11:58:15.328Z,68.46
2023-11-02T12:01:15.266Z,67.94
2023-11-02T12:03:45.721Z,67.37
2023-11-02T12:06:14.891Z,67.54
2023-11-02T12:08:48.093Z,66.65
2023-11-02T12:11:23.420Z,67.60
2023-11-02T12:13:54.087Z,68.68
2023-11-02T12:16:22.841Z,67.60
2023-11-02T12:18:53.256Z,67.46
2023-11-02T12:21:22.339Z,67.79
2023-11-02T12:23:51.605Z,67.89
2023-11-02T12:26:22.961Z,67.36
2023-11-02T12:28:52.604Z,67.27
2023-11-02T12:31:32.241Z,67.43
2023-11-02T12:34:00.884Z,67.63
2023-11-02T12:36:28.864Z,67.68
2023-11-02T12:38:57.348Z,68.54
2023-11-02T12:41:27.212Z,68.33
2023-11-02T12:44:04.383Z,67.61
2023-11-02T12:46:33.400Z,67.02
2023-11-02T12:49:17.647Z,66.66
2023-11-02T12:51:46.354Z,66.13
2023-11-02T12:54:16.206Z,65.56
2023-11-02T12:56:46.867Z,64.21
2023-11-02T12:59:16.086Z,63.22
2023-11-02T13:01:50.011Z,63.31
2023-11-02T13:04:19.448Z,63.44
2023-11-02T13:06:47.987Z,64.08
2023-11-02T13:09:19.967Z,64.82
2023-11-02T13:11:52.327Z,64.66
2023-11-02T13:14:21.934Z,66.24
2023-11-02T13:16:51.750Z,65.46
2023-11-02T13:19:20.985Z,65.79
2023-11-02T13:21:51.350Z,65.38
2023-11-02T13:24:19.679Z,67.06
2023-11-02T13:26:49.256Z,67.14
2023-11-02T13:29:18.233Z,68.41
2023-11-02T13:31:47.759Z,68.04
2023-11-02T13:34:16.017Z,67.48
2023-11-02T13:36:45.522Z,67.86
2023-11-02T13:39:14.070Z,67.57
2023-11-02T13:41:42.743Z,67.61
2023-11-02T13:44:12.247Z,67.63
2023-11-02T13:46:40.185Z,68.30
2023-11-02T13:49:08.350Z,68.60
2023-11-02T13:51:37.798Z,67.69
2023-11-02T13:54:06.116Z,69.14
2023-11-02T13:56:34.056Z,69.06
2023-11-02T13:59:01.915Z,69.72
2023-11-02T14:01:32.941Z,70.21
2023-11-02T14:04:01.443Z,70.04
2023-11-02T14:06:30.645Z,69.84
2023-11-02T14:08:59.986Z,70.35
2023-11-02T14:11:28.881Z,69.89
2023-11-02T14:13:56.959Z,68.17
2023-11-02T14:16:24.854Z,68.63
2023-11-02T14:18:54.196Z,68.39
2023-11-02T14:21:22.636Z,67.30
2023-11-02T14:23:50.675Z,67.38
2023-11-02T14:26:19.032Z,67.15
2023-11-02T14:28:46.964Z,67.23
2023-11-02T14:31:15.067Z,67.12
2023-11-02T14:33:44.342Z,66.46
2023-11-02T14:36:14.361Z,66.82
2023-11-02T14:38:42.781Z,67.50
2023-11-02T14:41:10.799Z,67.79
2023-11-02T14:43:38.781Z,68.00
2023-11-02T14:46:07.637Z,68.29
2023-11-02T14:48:36.449Z,68.57
2023-11-02T14:51:05.488Z,68.40
2023-11-02T14:53:34.780Z,68.27
2023-11-02T14:56:02.800Z,68.22
2023-11-02T14:58:30.735Z,68.40
2023-11-02T15:00:59.453Z,68.82
2023-11-02T15:03:28.200Z,69.23
2023-11-02T15:05:56.380Z,69.44
2023-11-02T15:08:24.324Z,70.55
2023-11-02T15:10:53.596Z,70.68
2023-11-02T15:13:21.563Z,71.17
2023-11-02T15:15:49.550Z,71.96
2023-11-02T15:18:17.566Z,73.31
2023-11-02T15:20:47.937Z,73.52
2023-11-02T15:23:15.869Z,73.34
2023-11-02T15:25:43.782Z,74.08
2023-11-02T15:28:13.132Z,75.16
2023-11-02T15:30:41.122Z,76.18
2023-11-02T15:33:09.339Z,76.79
2023-11-02T15:35:37.214Z,76.35
2023-11-02T15:38:06.499Z,75.25
2023-11-02T15:40:34.496Z,76.27
2023-11-02T15:43:02.451Z,75.96
2023-11-02T15:45:31.731Z,75.92
2023-11-02T15:47:59.780Z,76.74
2023-11-02T15:50:28.054Z,77.71
2023-11-02T15:52:56.036Z,78.13
2023-11-02T15:55:24.593Z,78.39
2023-11-02T15:57:53.430Z,78.82
2023-11-02T16:00:22.546Z,78.78
2023-11-02T16:02:52.938Z,79.27
2023-11-02T16:05:21.969Z,78.78
2023-11-02T16:07:49.945Z,79.51
2023-11-02T16:10:17.896Z,80.22
2023-11-02T16:12:45.915Z,79.31
2023-11-02T16:15:14.256Z,79.17
2023-11-02T16:17:46.380Z,79.12
2023-11-02T16:20:19.127Z,78.85
2023-11-02T16:22:49.041Z,78.32
2023-11-02T16:25:19.606Z,78.94
2023-11-02T16:27:48.328Z,79.72
2023-11-02T16:30:17.060Z,80.08
2023-11-02T16:32:45.002Z,79.13
2023-11-02T16:37:51.303Z,80.07
2023-11-02T16:40:21.391Z,80.34
2023-11-02T16:42:49.461Z,80.56
2023-11-02T16:45:18.001Z,80.83
2023-11-02T16:47:46.014Z,81.09
2023-11-02T16:50:18.138Z,81.53
2023-11-02T16:52:48.054Z,80.74
2023-11-02T16:55:16.357Z,80.05
2023-11-02T16:57:44.654Z,80.06
2023-11-02T17:00:14.131Z,80.43
2023-11-02T17:02:42.051Z,80.39
2023-11-02T17:05:09.979Z,80.65
2023-11-02T17:07:37.846Z,80.77
2023-11-02T17:10:09.220Z,80.64
2023-11-02T17:12:37.225Z,81.12
2023-11-02T17:15:08.842Z,81.48
2023-11-02T17:17:37.237Z,81.70
2023-11-02T17:20:05.616Z,81.63
2023-11-02T17:22:33.502Z,81.99
2023-11-02T17:25:02.127Z,81.79
2023-11-02T17:27:31.489Z,82.14
2023-11-02T17:29:59.374Z,82.40
2023-11-02T17:32:27.414Z,83.15
2023-11-02T17:34:55.509Z,83.47
2023-11-02T17:37:23.610Z,84.15
2023-11-02T17:39:53.056Z,85.27
2023-11-02T17:42:24.402Z,85.07
2023-11-02T17:44:53.919Z,84.33
2023-11-02T17:47:21.848Z,84.23
2023-11-02T17:49:49.937Z,84.24
2023-11-02T17:52:17.870Z,84.76
2023-11-02T17:54:46.036Z,85.49
2023-11-02T17:57:14.090Z,85.92
2023-11-02T17:59:42.037Z,86.59
2023-11-02T18:02:11.562Z,86.04
2023-11-02T18:04:39.464Z,86.11
2023-11-02T18:07:07.488Z,86.75
2023-11-02T18:09:36.556Z,87.76
2023-11-02T18:12:05.031Z,88.22
2023-11-02T18:14:32.961Z,88.57
2023-11-02T18:17:00.934Z,89.20
2023-11-02T18:19:30.515Z,90.38
2023-11-02T18:21:58.496Z,89.88
2023-11-02T18:24:26.471Z,88.77
2023-11-02T18:26:54.779Z,88.40
2023-11-02T18:29:22.705Z,87.91
2023-11-02T18:31:50.628Z,88.08
2023-11-02T18:34:21.303Z,88.11
2023-11-02T18:36:50.934Z,88.15
2023-11-02T18:39:18.927Z,87.86
2023-11-02T18:41:46.900Z,88.73
2023-11-02T18:44:15.002Z,90.08
2023-11-02T18:46:43.231Z,90.01
2023-11-02T18:49:15.624Z,90.13
2023-11-02T18:51:45.735Z,90.05
2023-11-02T18:54:15.137Z,91.58
2023-11-02T18:56:43.471Z,92.61
2023-11-02T18:59:11.383Z,92.98
2023-11-02T19:01:39.261Z,93.60
2023-11-02T19:04:07.576Z,93.95
2023-11-02T19:06:37.801Z,94.71
2023-11-02T19:09:06.460Z,95.18
2023-11-02T19:11:41.863Z,95.01
2023-11-02T19:14:10.279Z,95.58
2023-11-02T19:16:38.830Z,95.57
2023-11-02T19:19:07.862Z,95.31
2023-11-02T19:21:42.690Z,95.64
2023-11-02T19:24:11.627Z,94.84
2023-11-02T19:26:43.605Z,94.43
2023-11-02T19:29:12.081Z,94.23
2023-11-02T19:31:46.088Z,95.18
2023-11-02T19:34:14.167Z,96.12
2023-11-02T19:36:42.874Z,97.07
2023-11-02T19:39:10.827Z,97.61
2023-11-02T19:41:40.538Z,97.90
2023-11-02T19:44:10.025Z,98.41
2023-11-02T19:46:40.401Z,100.00
2023-11-02T19:49:08.493Z,99.53
2023-11-02T19:51:37.224Z,99.30
2023-11-02T19:54:06.568Z,100.00
2023-11-02T19:56:34.756Z,100.00
2023-11-02T19:59:02.702Z,100.00
2023-11-02T20:01:32.958Z,100.00
2023-11-02T20:04:04.814Z,100.00
2023-11-02T20:06:33.791Z,100.00
2023-11-02T20:09:01.774Z,100.00
2023-11-02T20:11:29.733Z,100.00
2023-11-02T20:13:57.737Z,100.00
2023-11-02T20:16:25.734Z,100.00
2023-11-02T20:18:55.155Z,100.00
2023-11-02T20:21:25.286Z,100.00
2023-11-02T20:23:54.070Z,100.00
2023-11-02T20:26:22.297Z,100.00
2023-11-02T20:28:50.258Z,100.00
2023-11-02T20:31:18.331Z,100.00
2023-11-02T20:33:48.068Z,100.00
2023-11-02T20:36:20.092Z,100.00
2023-11-02T20:38:47.972Z,100.00
2023-11-02T20:41:15.950Z,100.00
2023-11-02T20:43:44.008Z,100.00
2023-11-02T20:46:11.935Z,100.00
2023-11-02T20:48:40.034Z,100.00
2023-11-02T20:51:08.907Z,100.00
2023-11-02T20:53:38.390Z,100.00
2023-11-02T20:56:05.662Z,100.00
2023-11-02T20:58:33.590Z,100.00
2023-11-02T21:01:01.532Z,100.00
2023-11-02T21:03:29.746Z,100.00
2023-11-02T21:06:02.487Z,100.00
2023-11-02T21:08:34.118Z,100.00
2023-11-02T21:11:03.663Z,100.00
2023-11-02T21:13:31.582Z,100.00
2023-11-02T21:15:59.522Z,100.00
2023-11-02T21:18:27.564Z,100.00
2023-11-02T21:20:55.547Z,100.00
2023-11-02T21:23:23.447Z,100.00
2023-11-02T21:25:53.615Z,100.00
2023-11-02T21:28:22.868Z,100.00
2023-11-02T21:30:50.852Z,100.00
2023-11-02T21:33:18.728Z,100.00
2023-11-02T21:35:46.753Z,100.00
2023-11-02T21:38:14.668Z,100.00
2023-11-02T21:40:42.612Z,100.00
2023-11-02T21:43:11.868Z,100.00
2023-11-02T21:45:41.138Z,100.00
2023-11-02T21:48:09.133Z,100.00
2023-11-02T21:50:37.114Z,100.00
2023-11-02T21:53:05.006Z,100.00
2023-11-02T21:55:33.300Z,100.00
2023-11-02T21:58:01.798Z,100.00
2023-11-02T22:00:29.866Z,100.00
2023-11-02T22:02:59.286Z,100.00
2023-11-02T22:05:27.257Z,100.00
2023-11-02T22:07:55.211Z,100.00
2023-11-02T22:10:23.108Z,100.00
2023-11-02T22:12:51.026Z,100.00
2023-11-02T22:15:19.283Z,100.00
2023-11-02T22:17:47.366Z,100.00
2023-11-02T22:20:16.763Z,100.00
2023-11-02T22:22:44.702Z,100.00
2023-11-02T22:25:12.738Z,100.00
2023-11-02T22:27:40.889Z,100.00
2023-11-02T22:30:09.874Z,100.00
2023-11-02T22:32:39.461Z,100.00
2023-11-02T22:35:08.509Z,100.00
2023-11-02T22:37:37.977Z,100.00
2023-11-02T22:40:06.758Z,100.00
2023-11-02T22:42:34.746Z,100.00
2023-11-02T22:45:02.885Z,100.00
2023-11-02T22:47:32.668Z,100.00
2023-11-02T22:50:03.794Z,100.00
2023-11-02T22:52:32.095Z,100.00
2023-11-02T22:55:01.948Z,100.00
2023-11-02T22:57:30.218Z,100.00
2023-11-02T22:59:58.290Z,100.00
2023-11-02T23:02:26.287Z,100.00
2023-11-02T23:04:54.365Z,100.00
2023-11-02T23:07:22.331Z,100.00
2023-11-02T23:09:50.759Z,100.00
2023-11-02T23:12:20.071Z,100.00
2023-11-02T23:14:47.987Z,100.00
2023-11-02T23:17:17.426Z,100.00
2023-11-02T23:19:45.490Z,100.00
2023-11-02T23:22:13.401Z,100.00
2023-11-02T23:24:44.070Z,100.00
2023-11-02T23:27:12.012Z,100.00
2023-11-02T23:29:44.272Z,100.00
2023-11-02T23:32:12.176Z,100.00
2023-11-02T23:34:40.419Z,100.00
2023-11-02T23:37:08.994Z,100.00
2023-11-02T23:39:40.052Z,100.00
2023-11-02T23:42:08.799Z,100.00
2023-11-02T23:44:37.307Z,100.00
2023-11-02T23:47:08.386Z,100.00
2023-11-02T23:49:36.318Z,100.00
2023-11-02T23:52:04.266Z,100.00
2023-11-02T23:54:32.223Z,100.00
2023-11-02T23:57:00.128Z,100.00
2023-11-02T23:59:30.105Z,100.00
